Time;durP1;ratioP1;P1;durP2;ratioP2;P2;SDS_P1;SDS_P2;PMS_P1;PMS_P2;Temp;Humidity;BMP_temperature;BMP_pressure;BME280_temperature;BME280_humidity;BME280_pressure;Samples;Min_cycle;Max_cycle;Signal;HPM_P1;HPM_P2
2020/12/04 00:00:41;;;;;;;27.13;17.13;;;;;;;1.82;92.30;94842.84;4936786;28;20286;-88
2020/12/04 00:03:08;;;;;;;29.17;16.63;;;;;;;1.89;92.32;94845.09;4936648;28;20679;-88
2020/12/04 00:05:35;;;;;;;27.27;16.88;;;;;;;1.84;93.23;94853.13;4936925;28;20214;-87
2020/12/04 00:08:01;;;;;;;32.25;18.25;;;;;;;1.96;92.77;94851.63;4936472;28;20653;-88
2020/12/04 00:10:27;;;;;;;37.00;17.67;;;;;;;1.92;92.25;94839.78;4936939;28;20207;-88
2020/12/04 00:12:55;;;;;;;17.13;11.33;;;;;;;2.03;92.99;94846.09;4936416;28;20235;-88
2020/12/04 00:15:21;;;;;;;21.15;12.07;;;;;;;2.10;93.40;94841.41;4936766;28;20454;-84
2020/12/04 00:17:48;;;;;;;20.35;11.18;;;;;;;2.17;93.39;94841.00;4936442;28;20198;-88
2020/12/04 00:20:14;;;;;;;17.13;11.80;;;;;;;2.28;92.58;94844.75;4936365;28;20684;-88
2020/12/04 00:22:40;;;;;;;21.75;14.15;;;;;;;2.34;92.58;94845.28;4936790;28;20289;-87
2020/12/04 00:25:07;;;;;;;29.90;15.00;;;;;;;2.43;91.63;94843.94;4937035;28;20656;-88
2020/12/04 00:27:33;;;;;;;40.50;22.97;;;;;;;2.44;90.90;94841.28;4936163;28;20818;-88
2020/12/04 00:30:01;;;;;;;38.90;22.23;;;;;;;2.52;90.45;94837.44;4936243;28;20481;-88
2020/12/04 00:32:27;;;;;;;47.33;20.17;;;;;;;2.52;89.35;94846.03;4936555;29;20917;-88
2020/12/04 00:34:53;;;;;;;38.83;18.77;;;;;;;2.52;88.66;94842.59;4936018;28;20442;-88
2020/12/04 00:37:20;;;;;;;34.83;19.03;;;;;;;2.51;88.72;94840.94;4936724;28;20462;-89
2020/12/04 00:39:46;;;;;;;32.80;19.67;;;;;;;2.52;87.87;94851.22;4936184;28;20467;-88
2020/12/04 00:42:13;;;;;;;28.67;19.13;;;;;;;2.48;87.28;94841.94;4936143;28;20443;-88
2020/12/04 00:44:39;;;;;;;31.30;19.70;;;;;;;2.47;87.95;94842.88;4936349;28;20450;-87
2020/12/04 00:47:06;;;;;;;39.13;18.30;;;;;;;2.36;88.04;94833.09;4936138;28;20431;-88
2020/12/04 00:49:33;;;;;;;26.07;17.13;;;;;;;2.16;88.89;94856.63;4936281;28;20473;-88
2020/12/04 00:51:59;;;;;;;33.17;18.40;;;;;;;2.26;88.51;94852.59;4945660;28;20489;-88
2020/12/04 00:54:26;;;;;;;30.43;17.00;;;;;;;2.27;88.46;94850.84;4936224;28;20230;-87
2020/12/04 00:56:55;;;;;;;42.00;19.23;;;;;;;2.29;89.09;94849.03;4936093;28;20459;-88
2020/12/04 00:59:21;;;;;;;27.93;14.53;;;;;;;2.16;89.32;94841.09;4936280;29;20458;-87
2020/12/04 01:01:47;;;;;;;32.63;17.97;;;;;;;2.15;90.69;94844.59;4935529;28;20435;-85
2020/12/04 01:04:15;;;;;;;17.33;13.40;;;;;;;1.88;92.32;94846.03;4936295;28;20451;-88
2020/12/04 01:06:41;;;;;;;18.23;12.60;;;;;;;1.92;94.17;94842.34;4936002;28;20442;-88
2020/12/04 01:09:08;;;;;;;19.37;12.87;;;;;;;2.07;93.77;94831.22;4936136;28;20437;-89
2020/12/04 01:11:34;;;;;;;14.37;10.37;;;;;;;2.12;94.38;94821.47;4936253;28;20462;-88
2020/12/04 01:14:01;;;;;;;15.03;9.43;;;;;;;2.18;94.26;94818.53;4936262;29;20514;-88
2020/12/04 01:16:28;;;;;;;13.67;9.63;;;;;;;2.26;93.25;94818.97;4936321;28;20546;-88
2020/12/04 01:18:54;;;;;;;17.15;10.43;;;;;;;2.40;93.02;94813.88;4935343;28;20443;-88
2020/12/04 01:21:22;;;;;;;12.97;9.70;;;;;;;2.52;92.04;94803.75;4935769;28;20226;-88
2020/12/04 01:23:51;;;;;;;17.10;9.37;;;;;;;2.60;91.44;94810.22;4937085;28;20935;-88
2020/12/04 01:26:18;;;;;;;16.87;11.37;;;;;;;2.64;90.70;94816.06;4936673;29;20456;-85
2020/12/04 01:28:44;;;;;;;15.57;11.57;;;;;;;2.68;89.28;94808.03;4935949;28;20481;-88
2020/12/04 01:31:11;;;;;;;16.30;11.77;;;;;;;2.71;88.81;94807.84;4946404;28;20462;-83
2020/12/04 01:33:37;;;;;;;21.20;12.37;;;;;;;2.63;88.82;94798.84;4948865;28;20559;-85
2020/12/04 01:36:04;;;;;;;28.23;17.13;;;;;;;2.52;88.76;94807.19;4949925;28;20470;-88
2020/12/04 01:38:31;;;;;;;29.20;18.07;;;;;;;2.37;89.51;94785.56;4937045;28;20449;-88
2020/12/04 01:40:58;;;;;;;31.15;18.42;;;;;;;2.43;89.53;94798.19;4936917;28;20454;-88
2020/12/04 01:43:25;;;;;;;29.00;16.40;;;;;;;2.41;89.21;94787.06;4936113;28;20211;-88
2020/12/04 01:45:51;;;;;;;27.07;17.57;;;;;;;2.45;89.10;94779.97;4935624;29;20458;-88
2020/12/04 01:48:18;;;;;;;10.77;8.20;;;;;;;2.26;93.50;94774.13;4935757;29;20443;-85
2020/12/04 01:50:44;;;;;;;23.37;13.40;;;;;;;2.40;93.16;94764.69;4935071;28;20439;-87
2020/12/04 01:53:11;;;;;;;23.83;14.00;;;;;;;2.49;91.76;94761.59;4935459;28;20489;-88
2020/12/04 01:55:39;;;;;;;22.33;14.95;;;;;;;2.44;90.72;94752.41;4935693;29;20450;-88
2020/12/04 01:58:05;;;;;;;29.07;14.23;;;;;;;2.55;90.27;94765.59;4935381;28;20206;-88
2020/12/04 02:00:32;;;;;;;25.10;14.10;;;;;;;2.44;89.95;94760.16;4935695;29;20475;-89
2020/12/04 02:02:59;;;;;;;20.37;11.93;;;;;;;2.37;90.99;94745.91;4935504;28;20434;-88
2020/12/04 02:05:25;;;;;;;17.87;10.10;;;;;;;2.21;95.11;94761.44;4937791;28;20790;-89
2020/12/04 02:07:59;;;;;;;14.00;8.50;;;;;;;2.21;96.58;94761.44;4939036;28;20443;-88
2020/12/04 02:10:30;;;;;;;18.93;10.90;;;;;;;2.36;96.36;94776.13;4939106;28;20907;-89
2020/12/04 02:12:58;;;;;;;24.10;15.48;;;;;;;2.46;94.26;94755.75;4938537;28;20485;-89
2020/12/04 02:15:25;;;;;;;14.07;10.37;;;;;;;2.60;93.23;94757.56;4938873;28;20566;-88
2020/12/04 02:17:55;;;;;;;14.83;10.30;;;;;;;2.67;93.30;94753.72;4938540;28;20541;-87
2020/12/04 02:20:21;;;;;;;11.43;7.87;;;;;;;2.67;94.27;94753.72;4938791;28;20439;-88
2020/12/04 02:22:49;;;;;;;13.07;9.23;;;;;;;2.71;94.20;94744.84;4938738;29;20463;-88
2020/12/04 02:25:15;;;;;;;9.97;6.27;;;;;;;2.78;94.39;94734.03;4939237;28;20571;-88
2020/12/04 02:27:46;;;;;;;14.10;9.03;;;;;;;2.93;93.75;94741.88;4938435;28;21055;-88
2020/12/04 02:30:17;;;;;;;13.67;9.97;;;;;;;2.94;92.48;94751.31;4938719;28;20455;-89
2020/12/04 02:32:43;;;;;;;15.33;9.23;;;;;;;3.00;92.81;94761.31;4938148;28;20489;-89
2020/12/04 02:35:10;;;;;;;16.40;8.80;;;;;;;2.87;92.76;94756.00;4938064;28;20538;-88
2020/12/04 02:37:36;;;;;;;12.60;7.77;;;;;;;2.93;93.21;94740.13;4938492;28;20805;-88
2020/12/04 02:40:04;;;;;;;19.00;9.60;;;;;;;2.84;94.34;94725.06;4937826;28;20844;-88
2020/12/04 02:42:30;;;;;;;14.70;8.93;;;;;;;2.97;94.13;94725.22;4938266;28;20485;-88
2020/12/04 02:44:57;;;;;;;16.93;9.20;;;;;;;3.09;93.66;94730.50;4937957;28;20439;-85
2020/12/04 02:47:25;;;;;;;15.17;9.63;;;;;;;3.19;93.82;94728.25;4938111;28;20434;-89
2020/12/04 02:49:52;;;;;;;14.70;8.70;;;;;;;3.25;93.28;94729.63;4938128;28;20446;-89
2020/12/04 02:52:23;;;;;;;14.27;8.90;;;;;;;3.15;94.82;94728.47;4938020;28;20439;-89
2020/12/04 02:54:49;;;;;;;13.87;8.43;;;;;;;3.22;95.39;94745.38;4938052;28;20489;-89
2020/12/04 02:57:17;;;;;;;16.67;9.37;;;;;;;3.14;96.17;94735.44;4938223;28;20457;-89
2020/12/04 02:59:43;;;;;;;25.30;9.87;;;;;;;3.22;96.27;94724.63;4937940;28;20446;-89
2020/12/04 03:02:10;;;;;;;35.50;13.33;;;;;;;3.28;96.31;94727.69;4938202;28;20951;-89
2020/12/04 03:04:37;;;;;;;26.40;12.60;;;;;;;3.23;95.72;94739.25;4944121;28;20443;-90
2020/12/04 03:07:03;;;;;;;18.37;9.50;;;;;;;3.31;96.54;94748.25;4938760;29;20517;-89
2020/12/04 03:09:30;;;;;;;31.93;12.87;;;;;;;3.26;97.08;94733.91;4938301;29;20454;-90
2020/12/04 03:11:57;;;;;;;25.30;10.73;;;;;;;3.16;97.47;94730.16;4938088;28;20454;-86
2020/12/04 03:14:25;;;;;;;23.10;11.10;;;;;;;3.28;97.65;94729.44;4938125;28;20927;-89
2020/12/04 03:16:52;;;;;;;23.00;12.43;;;;;;;3.30;97.60;94737.97;4938926;28;20469;-90
2020/12/04 03:19:18;;;;;;;23.63;12.73;;;;;;;3.39;96.88;94740.00;4938323;28;20439;-90
2020/12/04 03:21:45;;;;;;;23.50;11.70;;;;;;;3.38;97.64;94734.00;4938484;28;20451;-90
2020/12/04 03:24:11;;;;;;;25.50;11.67;;;;;;;3.45;97.42;94734.44;4938206;29;20458;-90
2020/12/04 03:26:38;;;;;;;18.03;10.73;;;;;;;3.49;96.91;94738.56;4938117;28;20454;-90
2020/12/04 03:29:04;;;;;;;20.90;11.70;;;;;;;3.35;96.91;94730.75;4938314;28;20565;-89
2020/12/04 03:31:32;;;;;;;22.70;11.30;;;;;;;3.47;96.68;94732.63;4937836;28;20522;-86
2020/12/04 03:33:58;;;;;;;15.77;10.87;;;;;;;3.47;96.84;94740.41;4937899;28;20489;-90
2020/12/04 03:36:24;;;;;;;16.93;10.37;;;;;;;3.52;96.37;94730.59;4938138;28;20482;-90
2020/12/04 03:38:51;;;;;;;20.87;9.23;;;;;;;3.54;96.16;94739.13;4937627;28;20469;-90
2020/12/04 03:41:17;;;;;;;13.57;10.20;;;;;;;3.49;96.34;94743.75;4937624;28;20932;-90
2020/12/04 03:43:44;;;;;;;14.20;9.37;;;;;;;3.44;96.51;94745.75;4937786;28;20958;-89
2020/12/04 03:46:11;;;;;;;16.40;8.43;;;;;;;3.48;97.09;94742.06;4938526;28;20458;-90
2020/12/04 03:48:39;;;;;;;16.10;7.53;;;;;;;3.62;95.79;94746.44;4937841;28;20474;-90
2020/12/04 03:51:05;;;;;;;11.70;7.50;;;;;;;3.56;95.99;94742.44;4938556;28;20474;-91
2020/12/04 03:53:32;;;;;;;14.33;7.30;;;;;;;3.60;96.32;94750.88;4938139;28;20479;-89
2020/12/04 03:55:59;;;;;;;17.70;8.03;;;;;;;3.55;96.41;94752.91;4937779;28;20455;-91
2020/12/04 03:58:25;;;;;;;11.50;7.80;;;;;;;3.42;97.42;94748.44;4937604;28;20439;-90
2020/12/04 04:00:52;;;;;;;14.63;8.87;;;;;;;3.42;97.52;94742.41;4937703;28;20484;-89
2020/12/04 04:03:19;;;;;;;14.43;6.67;;;;;;;3.43;97.77;94749.28;4937048;28;20518;-91
2020/12/04 04:05:46;;;;;;;15.00;9.80;;;;;;;3.49;97.09;94742.91;4937381;28;20948;-89
2020/12/04 04:08:12;;;;;;;14.40;9.10;;;;;;;3.54;97.33;94751.25;4937517;28;20450;-90
2020/12/04 04:10:39;;;;;;;14.63;8.90;;;;;;;3.55;96.85;94755.50;4937889;28;20457;-88
2020/12/04 04:13:05;;;;;;;12.20;8.87;;;;;;;3.58;97.14;94756.16;4937621;28;20479;-91
2020/12/04 04:15:32;;;;;;;13.80;8.00;;;;;;;3.64;96.93;94747.16;4937526;28;20457;-90
2020/12/04 04:17:59;;;;;;;12.13;6.90;;;;;;;3.66;96.46;94753.09;4937620;28;20882;-87
2020/12/04 04:20:25;;;;;;;19.40;11.90;;;;;;;3.69;96.06;94751.16;4937203;28;20431;-89
2020/12/04 04:22:53;;;;;;;14.53;9.70;;;;;;;3.67;96.06;94753.00;4937478;28;20486;-90
2020/12/04 04:25:20;;;;;;;13.63;9.70;;;;;;;3.68;96.40;94743.47;4937885;28;20447;-90
2020/12/04 04:27:46;;;;;;;11.53;7.93;;;;;;;3.64;96.10;94752.34;4936539;29;20977;-91
2020/12/04 04:30:13;;;;;;;17.00;9.47;;;;;;;3.55;96.84;94752.91;4937082;28;20450;-90
2020/12/04 04:32:40;;;;;;;9.90;8.00;;;;;;;3.49;97.58;94730.78;4937085;28;20442;-90
2020/12/04 04:35:07;;;;;;;11.47;7.97;;;;;;;3.62;97.09;94729.09;4937441;28;20449;-90
2020/12/04 04:37:34;;;;;;;15.80;10.63;;;;;;;3.46;97.20;94733.53;4937489;28;20477;-90
2020/12/04 04:40:01;;;;;;;16.90;10.37;;;;;;;3.45;97.37;94734.44;4936987;28;20465;-90
2020/12/04 04:42:28;;;;;;;14.57;9.10;;;;;;;3.66;96.84;94745.31;4936557;28;20952;-90
2020/12/04 04:44:55;;;;;;;13.27;7.83;;;;;;;3.74;95.96;94748.28;4936525;28;20443;-90
2020/12/04 04:47:29;;;;;;;12.90;9.20;;;;;;;3.69;95.90;94735.59;4936451;28;20447;-90
2020/12/04 04:49:55;;;;;;;17.30;9.00;;;;;;;3.68;96.29;94748.66;4937812;28;20462;-90
2020/12/04 04:52:23;;;;;;;12.67;8.80;;;;;;;3.83;95.78;94749.50;4937740;28;20473;-91
2020/12/04 04:54:50;;;;;;;13.20;8.90;;;;;;;3.87;95.89;94740.59;4937611;28;20483;-91
2020/12/04 04:57:21;;;;;;;11.47;7.53;;;;;;;3.90;95.12;94743.84;4936677;28;20435;-91
2020/12/04 04:59:48;;;;;;;12.70;7.90;;;;;;;3.78;94.92;94742.00;4937604;28;20454;-92
2020/12/04 05:02:15;;;;;;;14.27;8.03;;;;;;;3.72;95.54;94731.97;4937524;28;20458;-91
2020/12/04 05:04:49;;;;;;;18.10;9.43;;;;;;;3.70;96.72;94732.06;4937182;28;20461;-91
2020/12/04 05:07:25;;;;;;;10.47;7.43;;;;;;;3.72;95.82;94727.59;4936966;29;21010;-91
2020/12/04 05:09:51;;;;;;;15.63;8.70;;;;;;;3.59;96.71;94728.47;4937206;28;20453;-89
2020/12/04 05:12:19;;;;;;;12.43;6.90;;;;;;;3.62;97.10;94726.50;4936905;28;20458;-90
2020/12/04 05:14:45;;;;;;;18.80;8.40;;;;;;;3.57;96.94;94718.19;4936599;28;20482;-87
2020/12/04 05:17:12;;;;;;;18.13;10.73;;;;;;;3.53;97.76;94721.88;4936422;28;20893;-90
2020/12/04 05:19:41;;;;;;;16.90;9.63;;;;;;;3.44;97.21;94727.59;4936568;28;20447;-90
2020/12/04 05:22:10;;;;;;;26.63;12.43;;;;;;;3.37;98.61;94723.72;4936607;28;20928;-89
2020/12/04 05:24:39;;;;;;;18.67;12.93;;;;;;;3.40;97.72;94729.53;4936360;28;20446;-90
2020/12/04 05:27:26;;;;;;;17.27;11.60;;;;;;;3.41;98.67;94748.53;4939617;28;20439;-89
2020/12/04 05:29:53;;;;;;;19.13;10.20;;;;;;;3.54;97.02;94756.44;5005483;28;20457;-84
2020/12/04 05:32:20;;;;;;;17.27;10.83;;;;;;;3.63;97.06;94738.56;5042168;28;20433;-84
2020/12/04 05:34:47;;;;;;;19.30;12.30;;;;;;;3.55;97.26;94732.16;4953043;28;20527;-86
2020/12/04 05:37:17;;;;;;;26.57;17.93;;;;;;;3.66;96.67;94719.38;4955008;28;20568;-91
2020/12/04 05:39:46;;;;;;;22.40;11.80;;;;;;;3.69;96.45;94730.38;4972236;28;20449;-92
2020/12/04 05:42:28;;;;;;;33.73;14.37;;;;;;;3.79;96.20;94729.84;4991899;28;20461;-91
2020/12/04 05:44:56;;;;;;;25.67;13.70;;;;;;;3.76;95.97;94741.25;5021596;28;20942;-91
2020/12/04 05:47:35;;;;;;;34.20;15.40;;;;;;;3.52;96.49;94730.59;5044358;28;20525;-94
2020/12/04 05:50:12;;;;;;;20.23;13.17;;;;;;;3.66;96.50;94735.78;5038620;28;20453;-90
2020/12/04 05:52:39;;;;;;;15.63;10.63;;;;;;;3.70;96.69;94721.69;4936282;29;20510;-91
2020/12/04 05:55:09;;;;;;;16.90;10.30;;;;;;;3.67;96.75;94726.22;4956223;28;20476;-90
2020/12/04 05:57:44;;;;;;;14.43;9.73;;;;;;;3.80;96.69;94723.72;4984682;28;21006;-87
2020/12/04 06:00:12;;;;;;;11.53;8.80;;;;;;;3.85;95.76;94734.66;5016563;28;20898;-90
2020/12/04 06:02:39;;;;;;;12.30;9.20;;;;;;;3.87;95.60;94738.84;4995348;28;20438;-91
2020/12/04 06:05:06;;;;;;;14.73;8.67;;;;;;;3.82;96.65;94714.94;4992316;28;20475;-91
2020/12/04 06:07:33;;;;;;;15.83;9.57;;;;;;;3.84;95.27;94717.44;5019012;28;20449;-91
2020/12/04 06:10:00;;;;;;;11.73;8.27;;;;;;;3.87;96.15;94732.81;5011828;28;20437;-91
2020/12/04 06:12:27;;;;;;;11.50;8.40;;;;;;;3.91;95.95;94729.09;4990494;28;21078;-94
2020/12/04 06:14:53;;;;;;;11.87;7.80;;;;;;;3.92;95.79;94738.53;5019036;28;20477;-91
2020/12/04 06:17:20;;;;;;;15.90;8.10;;;;;;;3.99;95.90;94739.81;4992452;28;20816;-92
2020/12/04 06:19:47;;;;;;;11.93;7.97;;;;;;;4.05;95.05;94723.91;5009703;28;20817;-87
2020/12/04 06:22:15;;;;;;;14.93;7.70;;;;;;;4.15;95.10;94724.97;4985682;28;21090;-89
2020/12/04 06:25:05;;;;;;;24.77;16.37;;;;;;;4.16;94.64;94741.41;5020768;28;20414;-88
2020/12/04 06:27:43;;;;;;;18.20;11.60;;;;;;;4.05;95.99;94747.25;4971041;28;20485;-88
2020/12/04 06:30:11;;;;;;;18.23;10.50;;;;;;;3.95;95.87;94746.16;5001006;28;20483;-90
2020/12/04 06:32:42;;;;;;;21.30;12.90;;;;;;;3.94;96.68;94740.13;4996586;28;20963;-87
2020/12/04 06:35:09;;;;;;;24.10;15.43;;;;;;;3.89;97.57;94744.75;4984240;28;20505;-92
2020/12/04 06:37:50;;;;;;;23.43;13.63;;;;;;;3.90;97.39;94741.25;4968165;28;20469;-91
2020/12/04 06:40:27;;;;;;;20.70;13.47;;;;;;;3.84;97.50;94749.41;5025713;28;20467;-92
2020/12/04 06:43:00;;;;;;;21.88;14.52;;;;;;;3.91;98.25;94765.44;5009411;28;20510;-91
2020/12/04 06:45:46;;;;;;;22.30;13.93;;;;;;;3.96;97.36;94759.03;4974172;28;20262;-93
2020/12/04 06:48:25;;;;;;;22.93;15.10;;;;;;;4.06;96.89;94754.13;4994268;28;20927;-95
2020/12/04 06:50:56;;;;;;;27.70;16.10;;;;;;;4.01;96.38;94756.97;5018565;28;20491;-96
2020/12/04 06:53:27;;;;;;;24.17;12.87;;;;;;;3.98;96.28;94761.53;5027047;28;21010;-96
2020/12/04 06:56:00;;;;;;;32.37;15.40;;;;;;;3.91;96.90;94763.66;5022158;28;20457;-94
2020/12/04 06:58:28;;;;;;;21.17;11.50;;;;;;;3.95;97.88;94761.72;5025295;28;20437;-95
2020/12/04 07:00:57;;;;;;;19.80;12.67;;;;;;;3.97;97.53;94765.88;5011332;28;20499;-96
2020/12/04 07:03:25;;;;;;;31.53;19.77;;;;;;;4.12;97.62;94779.69;5019429;28;20445;-91
2020/12/04 07:05:54;;;;;;;35.10;21.33;;;;;;;4.00;97.15;94773.47;4990099;28;20452;-92
2020/12/04 07:08:22;;;;;;;25.67;17.13;;;;;;;4.00;98.11;94762.25;5023597;28;20453;-96
2020/12/04 07:10:54;;;;;;;23.30;11.27;;;;;;;3.92;98.40;94770.53;4982165;28;20968;-95
2020/12/04 07:13:22;;;;;;;21.60;11.77;;;;;;;3.79;97.97;94768.78;5028039;28;20501;-94
2020/12/04 07:15:59;;;;;;;27.73;17.20;;;;;;;3.99;97.93;94779.59;4984303;28;20487;-92
2020/12/04 07:18:31;;;;;;;37.30;20.30;;;;;;;4.08;98.38;94790.38;4976707;28;20914;-91
2020/12/04 07:20:57;;;;;;;38.40;23.50;;;;;;;4.21;96.95;94773.09;4975629;28;20452;-90
2020/12/04 07:23:27;;;;;;;22.77;12.60;;;;;;;4.06;97.48;94769.69;4975507;28;20445;-89
2020/12/04 07:26:03;;;;;;;18.43;12.30;;;;;;;4.15;96.92;94768.28;4973943;28;20855;-89
2020/12/04 07:28:31;;;;;;;31.23;18.00;;;;;;;4.11;96.95;94772.84;5008719;28;20461;-90
2020/12/04 07:30:58;;;;;;;17.47;10.90;;;;;;;4.10;97.59;94780.72;5019776;28;20445;-90
2020/12/04 07:33:26;;;;;;;74.83;35.53;;;;;;;4.12;97.11;94784.06;5021943;28;20568;-86
2020/12/04 07:36:05;;;;;;;81.17;36.50;;;;;;;4.29;97.23;94782.06;5007661;28;21141;-90
2020/12/04 07:38:31;;;;;;;78.17;36.33;;;;;;;4.25;96.47;94764.19;5031752;28;20853;-90
2020/12/04 07:40:58;;;;;;;59.97;28.83;;;;;;;4.29;96.41;94761.28;4976726;28;20916;-89
2020/12/04 07:43:28;;;;;;;70.97;31.70;;;;;;;4.45;96.19;94765.53;5051876;28;20446;-90
2020/12/04 07:45:58;;;;;;;64.33;34.30;;;;;;;4.42;96.16;94783.94;5009707;28;20438;-83
2020/12/04 07:48:24;;;;;;;79.30;36.90;;;;;;;4.49;96.69;94777.41;5029896;28;20927;-89
2020/12/04 07:50:51;;;;;;;53.23;28.27;;;;;;;4.50;96.00;94785.09;5021424;28;20450;-93
2020/12/04 07:53:19;;;;;;;50.53;25.87;;;;;;;4.51;95.68;94772.94;5029196;28;20450;-90
2020/12/04 07:55:52;;;;;;;37.23;20.03;;;;;;;4.51;96.02;94767.75;5021978;28;20477;-88
2020/12/04 07:58:20;;;;;;;33.23;17.67;;;;;;;4.38;96.48;94772.06;4991556;28;20456;-89
2020/12/04 08:00:47;;;;;;;32.73;17.27;;;;;;;4.39;96.81;94773.72;5011008;28;20532;-87
2020/12/04 08:03:15;;;;;;;25.43;16.10;;;;;;;4.40;97.15;94771.03;5026451;28;20445;-89
2020/12/04 08:05:48;;;;;;;23.70;14.20;;;;;;;4.41;96.60;94780.50;5034477;28;20544;-86
2020/12/04 08:08:20;;;;;;;26.93;19.03;;;;;;;4.36;97.95;94777.34;4974780;28;20447;-83
2020/12/04 08:10:47;;;;;;;20.07;13.23;;;;;;;4.43;96.56;94780.41;4978567;28;20447;-84
2020/12/04 08:13:16;;;;;;;20.50;12.17;;;;;;;4.37;97.08;94789.41;5024746;28;20563;-87
2020/12/04 08:15:44;;;;;;;16.80;10.43;;;;;;;4.26;97.52;94784.88;5008986;28;20898;-87
2020/12/04 08:18:13;;;;;;;26.47;14.63;;;;;;;4.05;97.82;94788.81;5027528;28;20453;-86
2020/12/04 08:20:40;;;;;;;23.00;13.23;;;;;;;3.92;99.85;94788.69;4992155;28;20464;-87
2020/12/04 08:23:07;;;;;;;24.40;15.53;;;;;;;3.80;100.00;94773.88;4983950;28;20457;-82
2020/12/04 08:25:35;;;;;;;23.80;14.10;;;;;;;3.89;100.00;94769.88;5007587;28;20446;-86
2020/12/04 08:28:03;;;;;;;65.27;31.30;;;;;;;3.89;100.00;94777.66;5004632;28;20539;-87
2020/12/04 08:30:30;;;;;;;180.87;72.37;;;;;;;3.81;100.00;94785.09;5014936;28;20458;-85
2020/12/04 08:33:03;;;;;;;26.47;15.03;;;;;;;3.78;100.00;94769.72;5004942;28;20502;-87
2020/12/04 08:35:33;;;;;;;26.73;16.07;;;;;;;3.78;100.00;94760.16;5005556;28;20499;-84
2020/12/04 08:38:06;;;;;;;27.33;16.10;;;;;;;3.85;100.00;94761.44;5018246;28;20433;-90
2020/12/04 08:40:35;;;;;;;48.43;24.60;;;;;;;3.79;100.00;94766.19;5007085;28;20439;-86
2020/12/04 08:43:12;;;;;;;24.57;15.80;;;;;;;3.79;100.00;94755.81;4997385;28;20955;-86
2020/12/04 08:45:40;;;;;;;34.27;20.50;;;;;;;3.80;100.00;94753.13;5022653;28;20476;-83
2020/12/04 08:48:09;;;;;;;21.55;14.15;;;;;;;3.93;100.00;94748.84;4971017;28;20447;-87
2020/12/04 08:50:47;;;;;;;25.77;13.83;;;;;;;4.03;100.00;94736.94;4980245;28;20210;-87
2020/12/04 08:53:16;;;;;;;28.93;15.57;;;;;;;4.18;100.00;94742.97;4990730;28;20467;-87
2020/12/04 08:55:49;;;;;;;29.60;12.80;;;;;;;4.11;100.00;94736.50;4974616;28;20233;-87
2020/12/04 08:58:16;;;;;;;26.73;15.50;;;;;;;4.21;100.00;94745.38;5000443;28;20449;-86
2020/12/04 09:00:43;;;;;;;58.37;32.67;;;;;;;4.30;100.00;94746.53;4975382;28;20445;-86
2020/12/04 09:03:10;;;;;;;35.40;24.43;;;;;;;4.45;100.00;94744.75;5001003;28;20446;-87
2020/12/04 09:05:37;;;;;;;19.60;12.93;;;;;;;4.39;98.98;94733.00;5033224;28;20475;-87
2020/12/04 09:08:03;;;;;;;32.50;12.80;;;;;;;4.41;99.94;94736.34;4973584;28;20454;-87
2020/12/04 09:10:32;;;;;;;23.10;13.50;;;;;;;4.51;100.00;94742.59;4970393;28;20452;-89
2020/12/04 09:12:59;;;;;;;36.23;19.73;;;;;;;4.60;98.43;94730.78;4959160;28;20556;-87
2020/12/04 09:15:28;;;;;;;40.13;21.97;;;;;;;4.77;98.38;94735.75;4993962;28;20481;-87
2020/12/04 09:17:56;;;;;;;36.07;22.13;;;;;;;4.91;97.65;94729.63;5003399;28;20465;-86
2020/12/04 09:20:23;;;;;;;30.67;17.50;;;;;;;5.03;96.56;94734.03;5015029;28;20468;-87
2020/12/04 09:22:49;;;;;;;24.07;16.50;;;;;;;5.15;95.79;94735.00;4980709;28;20440;-86
2020/12/04 09:25:16;;;;;;;34.20;20.33;;;;;;;5.20;95.67;94738.13;4973679;28;20448;-87
2020/12/04 09:27:43;;;;;;;37.03;22.97;;;;;;;5.00;95.50;94728.22;4973076;28;20552;-87
2020/12/04 09:30:13;;;;;;;22.37;16.13;;;;;;;5.04;96.33;94732.28;4973116;28;20918;-88
2020/12/04 09:32:42;;;;;;;24.43;15.60;;;;;;;4.86;97.46;94727.34;4956835;28;20453;-86
2020/12/04 09:35:09;;;;;;;25.90;16.90;;;;;;;4.82;96.93;94710.28;4953763;28;20493;-86
2020/12/04 09:37:38;;;;;;;31.03;18.57;;;;;;;4.95;97.70;94715.53;4953889;29;20450;-86
2020/12/04 09:40:07;;;;;;;31.37;19.57;;;;;;;5.02;96.71;94721.97;4954464;28;20839;-86
2020/12/04 09:42:34;;;;;;;36.23;20.10;;;;;;;5.07;95.68;94717.31;4953476;29;20453;-87
2020/12/04 09:45:00;;;;;;;32.50;18.03;;;;;;;4.78;97.48;94706.22;4962606;28;20453;-92
2020/12/04 09:47:31;;;;;;;23.43;15.80;;;;;;;4.83;97.13;94711.13;5054825;28;20533;-86
2020/12/04 09:49:57;;;;;;;26.27;15.90;;;;;;;4.88;97.07;94707.28;5054266;28;20436;-86
2020/12/04 09:52:27;;;;;;;25.20;13.83;;;;;;;4.90;97.74;94717.56;5054269;28;20517;-85
2020/12/04 09:55:06;;;;;;;28.70;15.63;;;;;;;4.79;97.10;94723.47;5054235;28;20503;-90
2020/12/04 09:57:33;;;;;;;28.07;12.50;;;;;;;4.90;97.45;94727.97;5054737;28;21019;-83
2020/12/04 10:00:00;;;;;;;33.03;18.77;;;;;;;4.93;96.71;94731.22;5011471;28;20458;-84
2020/12/04 10:02:26;;;;;;;38.27;19.47;;;;;;;4.86;97.24;94740.34;4954118;29;20851;-84
2020/12/04 10:04:55;;;;;;;37.93;23.07;;;;;;;5.01;97.04;94729.88;4953871;29;20944;-84
2020/12/04 10:07:22;;;;;;;45.03;23.97;;;;;;;5.18;96.51;94727.81;4993059;28;20476;-83
2020/12/04 10:09:48;;;;;;;33.40;21.00;;;;;;;4.98;95.96;94729.16;4984726;28;20972;-88
2020/12/04 10:12:15;;;;;;;23.77;14.83;;;;;;;5.05;96.78;94726.16;5029901;28;20899;-85
2020/12/04 10:14:44;;;;;;;35.40;19.47;;;;;;;5.03;96.51;94725.41;4970146;28;20482;-85
2020/12/04 10:17:12;;;;;;;41.00;24.27;;;;;;;5.13;96.48;94726.47;4953240;29;20525;-86
2020/12/04 10:19:38;;;;;;;32.03;17.93;;;;;;;5.08;96.95;94723.34;4953177;28;20461;-85
2020/12/04 10:22:06;;;;;;;31.13;17.07;;;;;;;5.02;97.74;94721.97;4953635;28;20457;-84
2020/12/04 10:24:32;;;;;;;25.40;16.37;;;;;;;5.13;96.87;94718.66;5030163;28;20965;-84
2020/12/04 10:26:59;;;;;;;25.30;14.40;;;;;;;5.11;97.37;94710.13;5057195;28;20517;-85
2020/12/04 10:29:25;;;;;;;40.00;20.07;;;;;;;5.10;97.01;94704.09;5052279;28;20477;-85
2020/12/04 10:31:52;;;;;;;35.77;16.90;;;;;;;5.05;97.01;94710.53;5057507;28;20452;-84
2020/12/04 10:34:18;;;;;;;22.90;14.97;;;;;;;5.12;97.01;94715.22;5057653;28;21243;-83
2020/12/04 10:36:45;;;;;;;22.30;13.57;;;;;;;5.10;97.73;94711.91;4993520;28;20454;-84
2020/12/04 10:39:14;;;;;;;33.42;20.55;;;;;;;5.14;97.17;94702.13;4955149;28;20470;-86
2020/12/04 10:41:43;;;;;;;31.97;17.17;;;;;;;5.10;97.46;94696.28;4956631;28;20206;-86
2020/12/04 10:44:10;;;;;;;34.80;19.13;;;;;;;5.32;96.81;94700.91;4958315;28;20452;-85
2020/12/04 10:46:38;;;;;;;25.30;14.50;;;;;;;5.33;96.19;94697.38;4957449;28;20990;-87
2020/12/04 10:49:07;;;;;;;29.50;16.10;;;;;;;5.20;96.90;94691.31;5004088;28;20453;-87
2020/12/04 10:51:55;;;;;;;24.33;13.80;;;;;;;5.25;95.74;94694.44;4995424;28;20482;-86
2020/12/04 10:54:43;;;;;;;23.30;14.70;;;;;;;5.23;96.01;94688.53;5014234;28;20484;-89
2020/12/04 10:57:10;;;;;;;34.23;17.03;;;;;;;5.30;96.15;94692.38;4990927;28;20452;-89
2020/12/04 10:59:41;;;;;;;26.60;16.40;;;;;;;5.29;96.26;94690.72;4984706;28;20453;-85
2020/12/04 11:02:13;;;;;;;35.93;21.90;;;;;;;5.39;96.08;94691.75;5006695;28;20455;-84
2020/12/04 11:07:26;;;;;;;65.80;37.00;;;;;;;5.30;95.02;94694.97;5006087;28;20433;-84
2020/12/04 11:09:54;;;;;;;43.90;21.77;;;;;;;5.17;95.65;94691.50;5023612;28;20491;-85
2020/12/04 11:12:26;;;;;;;31.83;16.43;;;;;;;5.27;96.20;94687.38;5001326;28;20447;-83
2020/12/04 11:14:55;;;;;;;33.63;17.57;;;;;;;5.31;95.50;94683.63;5024198;28;20526;-84
2020/12/04 11:17:21;;;;;;;43.40;17.97;;;;;;;5.18;96.24;94688.81;5015185;28;20528;-87
2020/12/04 11:19:48;;;;;;;43.43;19.53;;;;;;;5.24;96.21;94674.59;4998711;28;20503;-86
2020/12/04 11:22:14;;;;;;;33.63;19.10;;;;;;;5.29;96.24;94664.69;5012545;28;20452;-85
2020/12/04 11:24:41;;;;;;;28.97;16.53;;;;;;;5.35;95.64;94659.06;4993117;28;20461;-86
2020/12/04 11:27:09;;;;;;;43.13;26.40;;;;;;;5.37;95.88;94657.19;5015157;28;20449;-85
2020/12/04 11:29:35;;;;;;;34.77;19.33;;;;;;;5.37;96.17;94653.75;5003227;28;20477;-85
2020/12/04 11:32:02;;;;;;;28.70;18.60;;;;;;;5.48;95.89;94656.44;5005865;28;20441;-85
2020/12/04 11:34:28;;;;;;;42.53;25.63;;;;;;;5.50;94.69;94646.78;4985980;28;20585;-86